Time;durP1;ratioP1;P1;durP2;ratioP2;P2;SDS_P1;SDS_P2;PMS_P1;PMS_P2;Temp;Humidity;BMP_temperature;BMP_pressure;BME280_temperature;BME280_humidity;BME280_pressure;Samples;Min_cycle;Max_cycle;Signal;HPM_P1;HPM_P2
2022/09/10 00:01:22;;;;;;;2.92;1.00;;;24.80;96.70;;;;;;5038444;28;20116;-81
2022/09/10 00:03:53;;;;;;;6.80;1.20;;;24.70;96.70;;;;;;5043458;28;20045;-81
2022/09/10 00:06:26;;;;;;;3.95;0.80;;;24.70;96.70;;;;;;5041667;28;20049;-81
2022/09/10 00:08:56;;;;;;;3.45;0.88;;;24.70;96.70;;;;;;5040572;28;20100;-80
2022/09/10 00:11:26;;;;;;;4.03;1.33;;;24.80;96.70;;;;;;5029707;28;20491;-81
2022/09/10 00:14:12;;;;;;;7.35;1.20;;;24.70;96.70;;;;;;5005660;28;20049;-81
2022/09/10 00:16:40;;;;;;;5.15;0.90;;;24.80;96.70;;;;;;4999814;28;20092;-81
2022/09/10 00:19:10;;;;;;;6.85;1.27;;;24.80;96.70;;;;;;5018194;28;20172;-81
2022/09/10 00:21:38;;;;;;;5.05;1.23;;;24.70;96.70;;;;;;5003932;28;20052;-81
2022/09/10 00:24:06;;;;;;;2.28;0.90;;;24.60;96.70;;;;;;5004010;28;20088;-81
2022/09/10 00:26:38;;;;;;;4.63;0.88;;;24.60;96.70;;;;;;5004392;28;20056;-81
2022/09/10 00:29:07;;;;;;;4.72;0.70;;;24.60;96.70;;;;;;5003138;28;20853;-81
2022/09/10 00:31:36;;;;;;;6.72;1.25;;;24.60;96.70;;;;;;5004370;28;20103;-81
2022/09/10 00:34:05;;;;;;;4.28;0.80;;;24.70;96.70;;;;;;5003990;28;20051;-81
2022/09/10 00:36:38;;;;;;;5.07;1.08;;;24.60;96.70;;;;;;5002001;28;20051;-81
2022/09/10 00:39:09;;;;;;;4.93;1.02;;;24.70;96.70;;;;;;5000079;28;20081;-81
2022/09/10 00:41:39;;;;;;;4.90;0.70;;;24.60;96.70;;;;;;5005015;28;20129;-81
2022/09/10 00:44:23;;;;;;;5.25;1.10;;;24.50;96.70;;;;;;4987746;28;20482;-82
2022/09/10 00:46:51;;;;;;;3.90;0.80;;;24.50;96.70;;;;;;5012682;28;20148;-81
2022/09/10 00:49:25;;;;;;;5.22;1.55;;;24.50;96.70;;;;;;5059789;28;20494;-80
2022/09/10 00:51:55;;;;;;;7.28;1.45;;;24.50;96.70;;;;;;5045055;28;20044;-81
2022/09/10 00:54:27;;;;;;;5.07;1.13;;;24.60;96.70;;;;;;5025893;28;20065;-81
2022/09/10 00:56:59;;;;;;;2.80;0.88;;;24.50;96.70;;;;;;5044848;28;20049;-81
2022/09/10 00:59:29;;;;;;;2.60;0.90;;;24.50;96.70;;;;;;5045260;28;20045;-80
2022/09/10 01:01:58;;;;;;;4.70;1.20;;;24.50;96.70;;;;;;5044718;28;20069;-80
2022/09/10 01:04:27;;;;;;;7.13;1.30;;;24.50;96.70;;;;;;5044677;28;21220;-81
2022/09/10 01:06:58;;;;;;;3.22;1.00;;;24.50;96.70;;;;;;5044223;28;20045;-82
2022/09/10 01:09:28;;;;;;;5.32;1.02;;;24.30;96.70;;;;;;5036191;28;20136;-81
2022/09/10 01:12:10;;;;;;;3.85;1.30;;;24.50;96.70;;;;;;5026942;28;20049;-81
2022/09/10 01:14:59;;;;;;;6.13;1.00;;;24.60;96.70;;;;;;5044541;28;20098;-80
2022/09/10 01:17:35;;;;;;;11.20;2.53;;;24.60;96.70;;;;;;5043828;28;20063;-80
2022/09/10 01:20:45;;;;;;;12.55;2.50;;;24.50;96.70;;;;;;5049764;28;20255;-81
2022/09/10 01:23:57;;;;;;;5.80;1.50;;;23.80;96.70;;;;;;5042303;28;20099;-79
2022/09/10 01:26:39;;;;;;;6.63;1.85;;;22.90;96.70;;;;;;5026909;28;20461;-81
2022/09/10 01:29:18;;;;;;;5.90;1.33;;;22.40;96.70;;;;;;5038072;28;20142;-81
2022/09/10 01:31:52;;;;;;;18.08;2.60;;;21.90;96.70;;;;;;5026070;28;20263;-81
2022/09/10 01:34:26;;;;;;;5.72;1.50;;;21.70;96.70;;;;;;5047897;28;20056;-81
2022/09/10 01:37:00;;;;;;;7.65;1.40;;;21.90;96.70;;;;;;5045197;28;20037;-82
2022/09/10 01:39:29;;;;;;;9.95;1.95;;;22.00;96.70;;;;;;5040389;28;20044;-81
2022/09/10 01:41:59;;;;;;;5.88;1.40;;;22.00;96.70;;;;;;5027676;28;20052;-81
2022/09/10 01:44:50;;;;;;;6.05;1.10;;;22.10;96.70;;;;;;5042693;28;20506;-82
2022/09/10 01:47:54;;;;;;;5.18;1.40;;;22.40;96.70;;;;;;5042238;28;20045;-82
2022/09/10 01:50:30;;;;;;;6.63;1.63;;;22.80;96.70;;;;;;5044277;28;20406;-82
2022/09/10 01:53:12;;;;;;;5.63;1.25;;;22.90;96.70;;;;;;5043613;28;20050;-81
2022/09/10 01:55:50;;;;;;;5.78;1.27;;;22.80;96.70;;;;;;5027529;28;20576;-81
2022/09/10 01:58:37;;;;;;;6.65;1.83;;;22.60;96.70;;;;;;5040924;28;20445;-82
2022/09/10 02:01:20;;;;;;;7.63;1.52;;;22.70;96.70;;;;;;5040156;28;20040;-81
2022/09/10 02:03:53;;;;;;;6.88;2.13;;;22.80;96.70;;;;;;5045080;28;20143;-81
2022/09/10 02:06:27;;;;;;;5.05;1.20;;;23.00;96.70;;;;;;5040332;28;20049;-82
2022/09/10 02:08:58;;;;;;;6.57;1.55;;;23.30;96.70;;;;;;5043946;28;20053;-81
2022/09/10 02:11:28;;;;;;;5.47;1.58;;;23.50;96.70;;;;;;5050887;28;20049;-82
2022/09/10 02:14:00;;;;;;;8.50;1.80;;;23.60;96.70;;;;;;5043265;28;20045;-82
2022/09/10 02:17:00;;;;;;;6.03;1.63;;;23.60;96.70;;;;;;5042258;28;20114;-79
2022/09/10 02:19:28;;;;;;;6.40;1.55;;;23.60;96.70;;;;;;5043769;28;20140;-80
2022/09/10 02:21:57;;;;;;;5.30;1.27;;;23.70;96.70;;;;;;5034682;28;20548;-81
2022/09/10 02:24:24;;;;;;;6.07;1.60;;;23.70;96.70;;;;;;5043086;28;20516;-82
2022/09/10 02:26:53;;;;;;;7.00;1.23;;;23.70;96.70;;;;;;5024106;28;20053;-80
2022/09/10 02:29:22;;;;;;;6.38;1.35;;;23.60;96.70;;;;;;5042918;28;20049;-80
2022/09/10 02:31:50;;;;;;;5.65;1.50;;;23.70;96.70;;;;;;5043892;28;20048;-79
2022/09/10 02:34:20;;;;;;;7.30;1.52;;;23.70;96.70;;;;;;5041840;28;20048;-79
2022/09/10 02:36:49;;;;;;;6.82;1.33;;;23.60;96.70;;;;;;5045095;28;20433;-80
2022/09/10 02:39:17;;;;;;;3.97;1.00;;;23.60;96.70;;;;;;5026652;28;20505;-79
2022/09/10 02:41:46;;;;;;;3.88;0.90;;;23.60;96.70;;;;;;5026696;28;20045;-80
2022/09/10 02:44:14;;;;;;;5.03;1.38;;;23.60;96.70;;;;;;5037977;28;20044;-80
2022/09/10 02:46:43;;;;;;;4.70;1.20;;;23.50;96.70;;;;;;5039617;28;20084;-80
2022/09/10 02:49:10;;;;;;;4.88;1.33;;;23.50;96.70;;;;;;5040841;28;20045;-80
2022/09/10 02:51:41;;;;;;;4.28;1.10;;;23.40;96.70;;;;;;5042728;28;20055;-80
2022/09/10 02:54:09;;;;;;;5.18;1.30;;;23.40;96.70;;;;;;5041368;28;20485;-80
2022/09/10 02:56:37;;;;;;;5.07;1.38;;;23.40;96.70;;;;;;5042576;28;20384;-79
2022/09/10 02:59:05;;;;;;;5.95;0.90;;;23.30;96.70;;;;;;5039803;28;20045;-79
2022/09/10 03:01:33;;;;;;;4.65;1.27;;;23.30;96.70;;;;;;5026830;28;20498;-80
2022/09/10 03:04:04;;;;;;;4.13;1.15;;;23.40;96.70;;;;;;5036837;28;20148;-80
2022/09/10 03:06:32;;;;;;;7.07;1.55;;;23.30;96.70;;;;;;5042369;28;20095;-79
2022/09/10 03:09:01;;;;;;;6.50;1.10;;;23.10;96.70;;;;;;5038008;28;20099;-80
2022/09/10 03:11:30;;;;;;;4.20;1.40;;;23.10;96.70;;;;;;5034879;28;21435;-81
2022/09/10 03:13:58;;;;;;;4.45;1.17;;;23.00;96.70;;;;;;5041606;28;20053;-80
2022/09/10 03:16:28;;;;;;;8.88;2.17;;;23.20;96.70;;;;;;5041317;28;20061;-79
2022/09/10 03:18:56;;;;;;;5.13;1.45;;;23.20;96.70;;;;;;5041908;28;20065;-79
2022/09/10 03:21:24;;;;;;;10.40;1.35;;;23.10;96.70;;;;;;5024886;28;20103;-80
2022/09/10 03:23:52;;;;;;;6.32;1.38;;;23.10;96.70;;;;;;5034120;28;20054;-79
2022/09/10 03:26:27;;;;;;;2.72;1.02;;;23.00;96.70;;;;;;5040817;28;20045;-80
2022/09/10 03:28:55;;;;;;;8.02;2.17;;;23.10;96.70;;;;;;5040201;28;20053;-80
2022/09/10 03:31:27;;;;;;;4.20;1.17;;;23.20;96.70;;;;;;5039517;28;20228;-79
2022/09/10 03:33:58;;;;;;;5.43;1.38;;;23.20;96.70;;;;;;5040708;28;20041;-80
2022/09/10 03:36:30;;;;;;;5.25;1.15;;;23.20;96.70;;;;;;5037008;28;20064;-80
2022/09/10 03:38:58;;;;;;;8.55;1.90;;;23.20;96.70;;;;;;5043026;28;20502;-80
2022/09/10 03:41:30;;;;;;;5.10;1.25;;;23.20;96.70;;;;;;5041546;28;20064;-80
2022/09/10 03:43:59;;;;;;;2.97;1.00;;;23.00;96.70;;;;;;5042088;28;20056;-80
2022/09/10 03:46:27;;;;;;;6.25;1.30;;;23.00;96.70;;;;;;5036709;28;20041;-79
2022/09/10 03:48:58;;;;;;;5.30;1.27;;;23.00;96.70;;;;;;5042001;28;20049;-80
2022/09/10 03:51:26;;;;;;;5.25;1.05;;;22.90;96.70;;;;;;5041653;28;20052;-80
2022/09/10 03:53:55;;;;;;;6.63;1.67;;;22.80;96.70;;;;;;5040026;28;20053;-80
2022/09/10 03:56:23;;;;;;;4.10;1.27;;;22.60;96.70;;;;;;5039187;28;20048;-78
2022/09/10 03:58:52;;;;;;;5.32;1.10;;;22.50;96.70;;;;;;5042378;28;20589;-79
2022/09/10 04:01:20;;;;;;;7.93;0.98;;;22.70;96.70;;;;;;5038835;28;20606;-81
2022/09/10 04:03:48;;;;;;;4.43;1.30;;;22.70;96.70;;;;;;5058584;28;20044;-80
2022/09/10 04:06:16;;;;;;;4.68;0.90;;;22.70;96.70;;;;;;5040620;28;20552;-80
2022/09/10 04:08:47;;;;;;;6.60;1.30;;;22.60;96.70;;;;;;5023675;28;20410;-79
2022/09/10 04:11:15;;;;;;;3.53;1.10;;;22.70;96.70;;;;;;5045578;28;20095;-79
2022/09/10 04:13:44;;;;;;;6.30;1.00;;;22.70;96.70;;;;;;5046552;28;20048;-80
2022/09/10 04:16:16;;;;;;;5.40;0.93;;;22.70;96.70;;;;;;5046656;28;20490;-79
2022/09/10 04:18:44;;;;;;;6.32;1.00;;;22.60;96.70;;;;;;5045936;28;20067;-80
2022/09/10 04:21:19;;;;;;;6.25;1.27;;;22.60;96.70;;;;;;5043587;28;20514;-79
2022/09/10 04:23:53;;;;;;;4.55;1.10;;;22.70;96.70;;;;;;5045763;28;20087;-80
2022/09/10 04:26:21;;;;;;;4.78;1.23;;;22.70;96.70;;;;;;5045509;28;20056;-80
2022/09/10 04:28:50;;;;;;;4.43;1.05;;;22.70;96.70;;;;;;5045112;28;20196;-79
2022/09/10 04:31:19;;;;;;;9.13;1.65;;;22.70;96.70;;;;;;5026396;28;20103;-80
2022/09/10 04:33:48;;;;;;;4.50;1.20;;;22.70;96.70;;;;;;5049953;28;20512;-81
2022/09/10 04:36:22;;;;;;;3.63;0.80;;;22.80;96.70;;;;;;5029925;28;20494;-80
2022/09/10 04:38:50;;;;;;;5.00;0.90;;;22.80;96.70;;;;;;5044311;28;20592;-80
2022/09/10 04:41:18;;;;;;;6.25;1.15;;;22.80;96.70;;;;;;5046088;28;20114;-81
2022/09/10 04:43:47;;;;;;;5.30;1.10;;;22.80;96.70;;;;;;5047021;28;20033;-80
2022/09/10 04:46:16;;;;;;;4.35;1.27;;;22.80;96.70;;;;;;5029490;28;20052;-80
2022/09/10 04:48:46;;;;;;;6.53;1.30;;;22.90;96.70;;;;;;5044763;28;20487;-80
2022/09/10 04:51:18;;;;;;;3.72;0.88;;;22.90;96.70;;;;;;5044979;28;20033;-80
2022/09/10 04:53:47;;;;;;;8.25;1.10;;;22.80;96.70;;;;;;5043919;28;20069;-80
2022/09/10 04:56:16;;;;;;;3.75;0.90;;;22.80;96.70;;;;;;5044241;28;20182;-81
2022/09/10 04:58:45;;;;;;;5.78;1.73;;;22.70;96.70;;;;;;5043514;28;20045;-80
2022/09/10 05:01:13;;;;;;;4.53;0.73;;;22.70;96.70;;;;;;5045830;28;20052;-81
2022/09/10 05:03:45;;;;;;;4.40;1.10;;;22.70;96.70;;;;;;5038356;28;20077;-80
2022/09/10 05:06:13;;;;;;;4.72;1.33;;;22.70;96.70;;;;;;5028693;28;20044;-80
2022/09/10 05:08:43;;;;;;;4.88;0.93;;;22.70;96.70;;;;;;5042989;28;20060;-80
2022/09/10 05:11:12;;;;;;;5.70;1.10;;;22.80;96.70;;;;;;5044930;28;20695;-80
2022/09/10 05:13:41;;;;;;;5.90;1.20;;;22.70;96.70;;;;;;5041726;28;20533;-80
2022/09/10 05:16:11;;;;;;;4.10;0.90;;;22.70;96.70;;;;;;5043870;28;20107;-80
2022/09/10 05:18:40;;;;;;;4.68;1.00;;;22.70;96.70;;;;;;5042673;28;20044;-79
2022/09/10 05:21:11;;;;;;;3.53;1.00;;;22.70;96.70;;;;;;5043504;28;20052;-80
2022/09/10 05:23:40;;;;;;;3.85;1.55;;;22.70;96.70;;;;;;5041157;28;20045;-80
2022/09/10 05:26:08;;;;;;;5.80;1.20;;;22.70;96.70;;;;;;5041808;28;20091;-81
2022/09/10 05:28:52;;;;;;;7.45;2.28;;;22.70;96.70;;;;;;4988014;28;20188;-81
2022/09/10 05:31:21;;;;;;;6.50;1.73;;;22.70;96.70;;;;;;4970790;28;20056;-80
2022/09/10 05:33:49;;;;;;;6.03;1.70;;;22.70;96.70;;;;;;4987340;28;20042;-80
2022/09/10 05:36:18;;;;;;;4.50;1.70;;;22.70;96.70;;;;;;4986429;28;20771;-80
2022/09/10 05:38:46;;;;;;;8.35;2.20;;;22.80;96.70;;;;;;4980359;28;20048;-80
2022/09/10 05:41:15;;;;;;;8.82;2.30;;;22.90;96.70;;;;;;4986622;28;20046;-80
2022/09/10 05:43:47;;;;;;;8.95;1.58;;;22.90;96.70;;;;;;4987758;28;20076;-80
2022/09/10 05:46:15;;;;;;;4.05;1.30;;;22.90;96.70;;;;;;4985304;28;20547;-80
2022/09/10 05:48:47;;;;;;;6.75;1.30;;;23.00;96.70;;;;;;4987236;28;20052;-80
2022/09/10 05:51:19;;;;;;;3.65;1.40;;;22.90;96.70;;;;;;4986470;28;20508;-80
2022/09/10 05:53:48;;;;;;;2.90;0.93;;;22.90;96.70;;;;;;4972995;28;20046;-80
2022/09/10 05:56:19;;;;;;;5.43;1.35;;;22.90;96.70;;;;;;5003508;28;20049;-79
2022/09/10 05:58:48;;;;;;;4.80;1.20;;;22.90;96.70;;;;;;4969110;28;20451;-80
2022/09/10 06:01:17;;;;;;;4.03;1.20;;;22.90;96.70;;;;;;4985878;28;20042;-81
2022/09/10 06:03:45;;;;;;;6.82;1.30;;;23.00;96.70;;;;;;4986993;28;20173;-80
2022/09/10 06:06:13;;;;;;;6.20;1.30;;;23.00;96.70;;;;;;5004373;28;20055;-82
2022/09/10 06:08:52;;;;;;;6.45;1.35;;;23.10;96.70;;;;;;5044111;28;20107;-80
2022/09/10 06:11:40;;;;;;;5.25;1.48;;;23.10;96.70;;;;;;5040439;28;20045;-81
2022/09/10 06:14:10;;;;;;;3.13;1.38;;;22.90;96.70;;;;;;5043248;28;20398;-81
2022/09/10 06:16:37;;;;;;;5.18;1.52;;;22.90;96.70;;;;;;5043916;28;20144;-81
2022/09/10 06:19:07;;;;;;;3.30;1.10;;;23.00;96.70;;;;;;5043354;28;20068;-79
2022/09/10 06:21:36;;;;;;;4.07;1.17;;;23.10;96.70;;;;;;5043524;28;20680;-80
2022/09/10 06:24:06;;;;;;;5.60;1.38;;;23.20;96.70;;;;;;5043478;28;20134;-80
2022/09/10 06:26:37;;;;;;;3.10;1.05;;;23.30;96.70;;;;;;5044611;28;20065;-80
2022/09/10 06:29:10;;;;;;;2.90;0.93;;;23.30;96.70;;;;;;5034860;28;20055;-82
2022/09/10 06:31:40;;;;;;;5.30;1.70;;;23.40;96.70;;;;;;5043102;28;20051;-80
2022/09/10 06:34:08;;;;;;;6.53;1.48;;;23.40;96.70;;;;;;5026192;28;20059;-81
2022/09/10 06:36:36;;;;;;;4.85;1.27;;;23.40;96.70;;;;;;5043542;28;20106;-80
2022/09/10 06:39:06;;;;;;;2.85;0.82;;;23.50;96.70;;;;;;5042847;28;20055;-81
2022/09/10 06:41:49;;;;;;;4.85;1.27;;;23.60;96.70;;;;;;5022047;28;20049;-81
2022/09/10 06:44:47;;;;;;;7.70;1.58;;;23.50;96.70;;;;;;5034009;28;20526;-80
2022/09/10 06:47:37;;;;;;;4.70;1.30;;;23.60;96.70;;;;;;5038078;28;20049;-81
2022/09/10 06:50:25;;;;;;;4.38;1.55;;;23.70;96.70;;;;;;5041716;28;20607;-80
2022/09/10 06:52:56;;;;;;;6.05;1.75;;;23.70;96.70;;;;;;5031515;28;20049;-81
2022/09/10 06:55:26;;;;;;;6.65;1.50;;;23.80;96.70;;;;;;5039113;28;20048;-80
2022/09/10 06:57:55;;;;;;;5.30;1.63;;;23.80;96.70;;;;;;5042519;28;20128;-80
2022/09/10 07:00:23;;;;;;;5.22;1.80;;;23.90;96.70;;;;;;5021544;28;20099;-81
2022/09/10 07:02:53;;;;;;;3.95;1.27;;;24.00;96.70;;;;;;5025198;28;20069;-82
2022/09/10 07:05:23;;;;;;;5.70;1.17;;;24.00;96.70;;;;;;5026666;28;20056;-81
2022/09/10 07:07:51;;;;;;;6.20;1.40;;;24.00;96.70;;;;;;5039926;28;20587;-81
2022/09/10 07:10:21;;;;;;;4.78;1.50;;;24.10;96.70;;;;;;5042890;28;20494;-81
2022/09/10 07:12:52;;;;;;;4.05;1.50;;;24.20;96.70;;;;;;5041035;28;20072;-80
2022/09/10 07:15:21;;;;;;;6.55;1.30;;;24.20;96.70;;;;;;5041336;28;20049;-80
2022/09/10 07:17:50;;;;;;;6.47;1.20;;;24.20;96.70;;;;;;5038847;28;20140;-80
2022/09/10 07:20:22;;;;;;;4.47;1.20;;;24.20;96.70;;;;;;5042944;28;20107;-81
2022/09/10 07:22:51;;;;;;;5.15;1.10;;;24.30;96.70;;;;;;5039569;28;20072;-80
2022/09/10 07:25:21;;;;;;;4.90;1.30;;;24.30;96.70;;;;;;5042633;28;20045;-81
2022/09/10 07:28:12;;;;;;;4.40;1.45;;;24.30;96.70;;;;;;5027854;28;20130;-81
2022/09/10 07:30:44;;;;;;;3.88;1.30;;;24.40;96.70;;;;;;5042904;28;20048;-81
2022/09/10 07:33:13;;;;;;;6.85;1.50;;;24.50;96.70;;;;;;5043826;28;20045;-79
2022/09/10 07:35:43;;;;;;;6.30;1.42;;;24.50;96.70;;;;;;5022712;28;20053;-80
2022/09/10 07:38:19;;;;;;;4.22;1.40;;;24.50;96.70;;;;;;5037002;28;20057;-81
2022/09/10 07:40:48;;;;;;;6.65;1.15;;;24.60;96.70;;;;;;5025595;28;20124;-80
2022/09/10 07:43:18;;;;;;;5.70;1.30;;;24.70;96.70;;;;;;5039450;28;20107;-80
2022/09/10 07:45:46;;;;;;;6.78;1.38;;;24.70;96.70;;;;;;5043335;28;20044;-80
2022/09/10 07:48:15;;;;;;;6.45;1.10;;;24.80;96.70;;;;;;5024986;28;20041;-81
2022/09/10 07:50:44;;;;;;;4.65;1.13;;;25.00;96.70;;;;;;5041583;28;20055;-80
2022/09/10 07:53:16;;;;;;;6.05;1.52;;;25.10;96.70;;;;;;5038863;28;20080;-79
2022/09/10 07:55:45;;;;;;;5.72;1.40;;;25.10;96.70;;;;;;5039250;28;20140;-81
2022/09/10 07:58:14;;;;;;;6.45;1.50;;;25.00;96.70;;;;;;5040583;28;20052;-81
2022/09/10 08:00:46;;;;;;;5.15;1.60;;;25.00;96.70;;;;;;5039363;28;20052;-80
2022/09/10 08:03:17;;;;;;;6.05;1.20;;;25.00;96.70;;;;;;5042750;28;20060;-81
2022/09/10 08:05:47;;;;;;;9.40;1.30;;;25.10;96.70;;;;;;5021204;28;20139;-81
2022/09/10 08:08:15;;;;;;;6.45;1.35;;;25.10;96.70;;;;;;5018286;28;20050;-80
2022/09/10 08:10:43;;;;;;;6.68;1.30;;;25.00;96.70;;;;;;5036586;28;20061;-80
2022/09/10 08:13:13;;;;;;;6.38;0.90;;;25.00;96.70;;;;;;5042035;28;20064;-79
2022/09/10 08:15:42;;;;;;;6.70;1.42;;;25.00;96.70;;;;;;5039531;28;20105;-81
2022/09/10 08:18:13;;;;;;;2.70;0.80;;;25.00;96.70;;;;;;5042440;28;20110;-81
2022/09/10 08:20:41;;;;;;;6.60;1.10;;;25.10;96.70;;;;;;5037722;28;20049;-81
2022/09/10 08:23:09;;;;;;;4.35;1.17;;;25.20;96.70;;;;;;5039041;28;20045;-80
2022/09/10 08:25:37;;;;;;;6.28;1.10;;;25.30;96.70;;;;;;5037806;28;20107;-81
2022/09/10 08:28:07;;;;;;;3.88;1.20;;;25.40;96.70;;;;;;5041842;28;20041;-81
2022/09/10 08:30:35;;;;;;;5.93;1.10;;;25.40;96.70;;;;;;5035137;28;20136;-80
2022/09/10 08:33:03;;;;;;;5.65;1.25;;;25.60;96.70;;;;;;5025429;28;20136;-81
2022/09/10 08:35:36;;;;;;;6.43;1.38;;;25.70;96.70;;;;;;5036618;28;20092;-80
2022/09/10 08:38:04;;;;;;;5.95;1.15;;;25.70;96.70;;;;;;5040386;28;20052;-80
2022/09/10 08:40:32;;;;;;;9.07;1.60;;;25.70;96.70;;;;;;5037055;28;20052;-81
2022/09/10 08:43:00;;;;;;;5.22;1.00;;;25.90;96.70;;;;;;5042079;28;20075;-80
2022/09/10 08:45:32;;;;;;;14.38;2.58;;;26.00;96.70;;;;;;5023305;28;20040;-80
2022/09/10 08:48:05;;;;;;;4.85;1.02;;;26.00;96.70;;;;;;5041401;28;20053;-82
2022/09/10 08:50:43;;;;;;;5.50;1.17;;;26.00;96.70;;;;;;5024644;28;20048;-81
2022/09/10 08:53:24;;;;;;;7.15;1.17;;;26.00;96.70;;;;;;5040805;28;20045;-81
2022/09/10 08:55:59;;;;;;;3.28;0.88;;;26.00;96.70;;;;;;5041251;28;20048;-81
2022/09/10 08:58:33;;;;;;;6.78;1.20;;;26.10;96.70;;;;;;5042812;28;20204;-80
2022/09/10 09:01:03;;;;;;;5.10;1.20;;;26.10;96.70;;;;;;5044647;28;20057;-79
2022/09/10 09:03:39;;;;;;;6.68;1.67;;;26.10;96.70;;;;;;5042545;28;20413;-80
2022/09/10 09:06:22;;;;;;;7.78;1.15;;;26.20;96.70;;;;;;5024829;28;20503;-80
2022/09/10 09:08:52;;;;;;;8.75;1.60;;;26.10;96.70;;;;;;5024811;28;20052;-80
2022/09/10 09:11:33;;;;;;;5.65;1.23;;;26.00;96.70;;;;;;5028496;28;20049;-80
2022/09/10 09:14:12;;;;;;;7.13;1.15;;;26.10;96.70;;;;;;5040834;28;20064;-80
2022/09/10 09:17:15;;;;;;;4.82;1.33;;;26.20;96.70;;;;;;5023342;28;20070;-81
2022/09/10 09:19:51;;;;;;;6.65;1.58;;;26.30;96.70;;;;;;5040020;28;20475;-81
2022/09/10 09:22:33;;;;;;;8.75;1.67;;;26.40;96.70;;;;;;5041639;28;20090;-79
2022/09/10 09:25:19;;;;;;;6.75;1.45;;;26.50;96.70;;;;;;5029497;28;20041;-81
2022/09/10 09:27:53;;;;;;;7.07;1.42;;;26.60;96.70;;;;;;5042306;28;20135;-81
2022/09/10 09:30:27;;;;;;;5.60;0.97;;;26.50;96.70;;;;;;5044426;28;20567;-80
2022/09/10 09:33:02;;;;;;;7.32;1.40;;;26.60;96.70;;;;;;5040388;28;20506;-80
2022/09/10 09:35:33;;;;;;;5.70;1.13;;;26.80;96.70;;;;;;5045066;28;20103;-80
2022/09/10 09:38:16;;;;;;;7.43;1.17;;;26.90;96.70;;;;;;5041597;28;20048;-80
2022/09/10 09:41:06;;;;;;;5.78;1.15;;;27.00;96.70;;;;;;5043336;28;20506;-80
2022/09/10 09:43:49;;;;;;;9.23;1.35;;;26.90;96.70;;;;;;5043744;28;20048;-81
2022/09/10 09:46:20;;;;;;;4.63;1.10;;;26.90;96.70;;;;;;5043540;28;20045;-80
2022/09/10 09:48:55;;;;;;;7.53;1.00;;;26.80;96.70;;;;;;5037901;28;20077;-80
2022/09/10 09:51:29;;;;;;;6.00;0.88;;;26.80;96.70;;;;;;5038770;28;20057;-79
2022/09/10 09:54:05;;;;;;;6.88;1.20;;;26.80;96.70;;;;;;5037501;28;20439;-79
2022/09/10 09:57:15;;;;;;;6.80;0.93;;;26.80;96.70;;;;;;5038882;28;20044;-79
2022/09/10 09:59:43;;;;;;;5.43;1.05;;;26.80;96.70;;;;;;5041925;28;20052;-79
2022/09/10 10:02:14;;;;;;;3.55;1.23;;;26.90;96.70;;;;;;5041882;28;20208;-79
2022/09/10 10:04:54;;;;;;;5.13;1.50;;;27.10;96.70;;;;;;5044360;28;20534;-80
2022/09/10 10:07:26;;;;;;;7.93;3.88;;;27.30;96.70;;;;;;5042936;28;20045;-79
2022/09/10 10:09:56;;;;;;;7.47;2.35;;;27.20;96.70;;;;;;5045018;28;20470;-79
2022/09/10 10:12:25;;;;;;;11.52;7.18;;;27.00;96.70;;;;;;5043588;28;20048;-78
2022/09/10 10:14:53;;;;;;;7.25;1.45;;;27.00;96.70;;;;;;5043219;28;20041;-79
2022/09/10 10:17:36;;;;;;;3.85;0.70;;;27.10;96.70;;;;;;5041704;28;20140;-79
2022/09/10 10:20:14;;;;;;;4.63;1.00;;;26.90;96.70;;;;;;5041811;28;20045;-79
2022/09/10 10:22:43;;;;;;;5.38;1.23;;;26.80;96.70;;;;;;5043118;28;20589;-79
2022/09/10 10:25:39;;;;;;;6.28;0.85;;;26.90;96.70;;;;;;5043599;28;20051;-79
2022/09/10 10:28:24;;;;;;;6.22;0.90;;;27.00;96.70;;;;;;5034755;28;20048;-79
2022/09/10 10:30:54;;;;;;;6.35;1.00;;;27.10;96.70;;;;;;5037243;28;20566;-78
2022/09/10 10:33:27;;;;;;;4.60;0.88;;;27.20;96.70;;;;;;5040307;28;20116;-79
2022/09/10 10:36:06;;;;;;;5.22;1.05;;;27.30;96.70;;;;;;5040159;28;20461;-79
2022/09/10 10:38:39;;;;;;;6.75;1.02;;;27.20;96.70;;;;;;5044217;28;20453;-79
2022/09/10 10:41:30;;;;;;;3.75;1.20;;;27.10;96.70;;;;;;5043282;28;20140;-79
2022/09/10 10:44:22;;;;;;;5.32;1.15;;;27.10;96.70;;;;;;5038809;28;20503;-78
2022/09/10 10:47:10;;;;;;;5.20;0.70;;;27.60;96.70;;;;;;5036974;28;20114;-79
2022/09/10 10:49:58;;;;;;;5.80;0.80;;;27.80;96.70;;;;;;5041605;28;20513;-80
2022/09/10 10:52:35;;;;;;;6.93;0.90;;;27.90;96.70;;;;;;5041997;28;20460;-79
2022/09/10 10:55:13;;;;;;;7.38;1.30;;;27.70;96.70;;;;;;5040120;28;20465;-79
2022/09/10 10:58:09;;;;;;;5.28;0.93;;;27.70;96.70;;;;;;5042418;28;20045;-79
2022/09/10 11:00:42;;;;;;;4.60;0.90;;;28.00;96.70;;;;;;5028806;28;20812;-79
2022/09/10 11:03:20;;;;;;;5.60;1.02;;;28.00;96.70;;;;;;5040368;28;20048;-80
2022/09/10 11:05:51;;;;;;;4.78;0.90;;;28.10;96.70;;;;;;5044401;28;20045;-79
2022/09/10 11:08:26;;;;;;;7.38;1.60;;;28.20;96.70;;;;;;5041900;28;20449;-79
2022/09/10 11:10:59;;;;;;;5.88;1.08;;;28.30;96.70;;;;;;5048270;28;20175;-79
2022/09/10 11:13:35;;;;;;;4.68;0.95;;;28.30;96.70;;;;;;5038583;28;20046;-79
2022/09/10 11:16:08;;;;;;;8.52;1.35;;;28.20;96.70;;;;;;5038246;28;20057;-79
2022/09/10 11:18:43;;;;;;;6.07;1.15;;;28.10;96.70;;;;;;5037614;28;20049;-79
2022/09/10 11:21:19;;;;;;;6.25;0.80;;;28.20;96.70;;;;;;5042006;28;20083;-80
2022/09/10 11:23:55;;;;;;;5.40;0.93;;;28.30;96.70;;;;;;5041157;28;20049;-81
2022/09/10 11:26:30;;;;;;;4.40;0.95;;;28.30;96.70;;;;;;5035535;28;20044;-79
2022/09/10 11:29:18;;;;;;;6.18;0.80;;;28.40;96.70;;;;;;5040397;28;20049;-79
2022/09/10 11:31:50;;;;;;;4.13;0.98;;;28.50;96.70;;;;;;5041806;28;20103;-79
2022/09/10 11:34:24;;;;;;;6.82;1.10;;;28.60;96.70;;;;;;5039734;28;20044;-79
2022/09/10 11:37:01;;;;;;;6.53;1.00;;;28.50;96.70;;;;;;5023204;28;20049;-80
2022/09/10 11:39:33;;;;;;;4.88;1.05;;;28.40;96.70;;;;;;5040670;28;20499;-79
2022/09/10 11:42:12;;;;;;;5.18;0.95;;;28.20;96.70;;;;;;5041755;28;20041;-80
2022/09/10 11:44:54;;;;;;;8.52;1.27;;;28.20;96.70;;;;;;5026179;28;20577;-79
2022/09/10 11:47:26;;;;;;;6.20;1.00;;;28.30;96.70;;;;;;5039737;28;20135;-79
2022/09/10 11:50:00;;;;;;;4.35;0.82;;;28.20;96.70;;;;;;5041534;28;20144;-79
2022/09/10 11:52:29;;;;;;;8.10;1.35;;;28.00;96.70;;;;;;5042079;28;20056;-79
2022/09/10 11:54:58;;;;;;;5.70;0.82;;;27.90;96.70;;;;;;5042554;28;20037;-80
2022/09/10 11:57:35;;;;;;;7.68;1.05;;;27.90;96.70;;;;;;5038668;28;20120;-79
2022/09/10 12:00:16;;;;;;;4.55;0.88;;;27.80;96.70;;;;;;5040993;28;20463;-80
2022/09/10 12:03:19;;;;;;;6.00;0.95;;;27.90;96.70;;;;;;5041724;28;20051;-79
2022/09/10 12:05:58;;;;;;;9.10;1.33;;;27.90;96.70;;;;;;5040883;28;20036;-81
2022/09/10 12:08:43;;;;;;;5.70;0.93;;;27.70;96.70;;;;;;5036323;28;20045;-81
2022/09/10 12:11:21;;;;;;;6.80;1.00;;;27.80;96.70;;;;;;5041118;28;20068;-79
2022/09/10 12:13:49;;;;;;;8.27;1.10;;;27.80;96.70;;;;;;5037845;28;20118;-80
2022/09/10 12:16:25;;;;;;;6.90;1.60;;;27.80;96.70;;;;;;5037645;28;20081;-79
2022/09/10 12:18:56;;;;;;;5.50;1.45;;;27.80;96.70;;;;;;5043507;28;20322;-79
2022/09/10 12:21:31;;;;;;;3.90;0.68;;;27.70;96.70;;;;;;5039634;28;20139;-80
2022/09/10 12:24:02;;;;;;;7.10;1.48;;;27.80;96.70;;;;;;5043348;28;20041;-80
2022/09/10 12:26:41;;;;;;;7.90;1.10;;;27.80;96.70;;;;;;5040806;28;20052;-79
2022/09/10 12:29:29;;;;;;;6.50;1.02;;;27.90;96.70;;;;;;5040854;28;20045;-79
2022/09/10 12:32:32;;;;;;;5.30;0.88;;;27.90;96.70;;;;;;5044535;28;20051;-79
2022/09/10 12:35:42;;;;;;;6.18;1.00;;;27.90;96.70;;;;;;5042954;28;20083;-79
2022/09/10 12:38:49;;;;;;;6.53;0.75;;;27.90;96.70;;;;;;5045991;28;20037;-79
2022/09/10 12:41:54;;;;;;;6.05;1.10;;;27.90;96.70;;;;;;5045042;28;20071;-79
2022/09/10 12:44:46;;;;;;;6.28;1.33;;;28.00;96.70;;;;;;5042973;28;20060;-79
2022/09/10 12:47:43;;;;;;;4.10;0.80;;;28.10;96.70;;;;;;5057861;28;20049;-79
2022/09/10 12:50:35;;;;;;;6.57;1.05;;;28.10;96.70;;;;;;5042652;28;20053;-79
2022/09/10 12:53:31;;;;;;;4.40;1.05;;;28.30;96.70;;;;;;5041898;28;20045;-79
2022/09/10 12:56:16;;;;;;;5.53;1.23;;;28.30;96.70;;;;;;5025244;28;20763;-80
2022/09/10 12:58:57;;;;;;;7.00;1.02;;;28.50;96.70;;;;;;5044568;28;20064;-80
2022/09/10 13:01:38;;;;;;;4.93;1.08;;;28.50;96.70;;;;;;5045154;28;20144;-79
2022/09/10 13:04:23;;;;;;;6.57;1.00;;;28.60;96.70;;;;;;5026073;28;20467;-79
2022/09/10 13:06:54;;;;;;;3.42;1.00;;;28.50;96.70;;;;;;5025172;28;20424;-80
2022/09/10 13:09:25;;;;;;;4.07;0.95;;;28.50;96.70;;;;;;5043937;28;20045;-79
2022/09/10 13:11:56;;;;;;;4.00;0.80;;;28.40;96.70;;;;;;5046682;28;20049;-79
2022/09/10 13:14:29;;;;;;;5.43;0.70;;;28.40;96.70;;;;;;5042164;28;20048;-79
2022/09/10 13:16:57;;;;;;;5.32;1.20;;;28.50;96.70;;;;;;5042904;28;20053;-79
2022/09/10 13:19:51;;;;;;;5.28;1.25;;;28.40;96.70;;;;;;5041986;28;20049;-79
2022/09/10 13:22:47;;;;;;;5.75;1.10;;;28.50;96.70;;;;;;5039779;28;20558;-80